Time;durP1;ratioP1;P1;durP2;ratioP2;P2;SDS_P1;SDS_P2;PMS_P1;PMS_P2;Temp;Humidity;BMP_temperature;BMP_pressure;BME280_temperature;BME280_humidity;BME280_pressure;Samples;Min_cycle;Max_cycle;Signal;HPM_P1;HPM_P2
2022/07/14 00:01:43;;;;;;;2.42;1.30;;;;;;;;;;5027284;28;20035;-58
2022/07/14 00:04:09;;;;;;;1.35;1.20;;;;;;;;;;5024244;28;20032;-57
2022/07/14 00:06:35;;;;;;;3.28;1.20;;;;;;;;;;5019811;28;20021;-57
2022/07/14 00:09:01;;;;;;;2.70;1.40;;;;;;;;;;5025729;28;20056;-58
2022/07/14 00:11:26;;;;;;;3.13;1.20;;;;;;;;;;5022341;28;20487;-57
2022/07/14 00:13:52;;;;;;;3.03;1.40;;;;;;;;;;5021276;28;20030;-57
2022/07/14 00:16:18;;;;;;;1.45;1.30;;;;;;;;;;5021726;28;20025;-57
2022/07/14 00:18:44;;;;;;;2.03;1.33;;;;;;;;;;5028695;28;20025;-57
2022/07/14 00:21:13;;;;;;;4.18;1.27;;;;;;;;;;5025503;28;20032;-57
2022/07/14 00:23:39;;;;;;;;;;;;;;;;;;5028398;28;20052;-58
2022/07/14 00:26:04;;;;;;;3.13;1.23;;;;;;;;;;5028008;28;19913;-57
2022/07/14 00:28:30;;;;;;;3.75;1.40;;;;;;;;;;5025123;28;20033;-58
2022/07/14 00:30:55;;;;;;;1.20;1.10;;;;;;;;;;5020027;28;20021;-58
2022/07/14 00:33:21;;;;;;;1.52;1.00;;;;;;;;;;5025289;28;20117;-57
2022/07/14 00:35:46;;;;;;;1.45;1.17;;;;;;;;;;5028704;28;20022;-57
2022/07/14 00:38:12;;;;;;;1.38;1.23;;;;;;;;;;5027805;28;20113;-58
2022/07/14 00:40:37;;;;;;;3.80;1.27;;;;;;;;;;5027059;28;20017;-57
2022/07/14 00:43:03;;;;;;;2.38;1.17;;;;;;;;;;5025483;28;20082;-57
2022/07/14 00:45:28;;;;;;;4.32;1.50;;;;;;;;;;5025501;28;20033;-57
2022/07/14 00:47:54;;;;;;;2.40;1.40;;;;;;;;;;5025559;28;20167;-58
2022/07/14 00:50:20;;;;;;;2.20;1.20;;;;;;;;;;5029345;28;20037;-57
2022/07/14 00:52:47;;;;;;;2.25;1.52;;;;;;;;;;5026857;28;20029;-58
2022/07/14 00:55:14;;;;;;;1.73;1.35;;;;;;;;;;5022498;28;20172;-57
2022/07/14 00:57:40;;;;;;;2.45;1.25;;;;;;;;;;5031115;28;20047;-57
2022/07/14 01:00:08;;;;;;;1.70;1.35;;;;;;;;;;5029969;28;20041;-58
2022/07/14 01:02:34;;;;;;;1.33;1.20;;;;;;;;;;5030668;28;20079;-58
2022/07/14 01:05:00;;;;;;;2.10;0.98;;;;;;;;;;5025533;28;20038;-57
2022/07/14 01:07:25;;;;;;;2.55;1.20;;;;;;;;;;5027617;28;20037;-57
2022/07/14 01:09:50;;;;;;;1.30;1.20;;;;;;;;;;5029900;28;20028;-58
2022/07/14 01:12:16;;;;;;;2.28;1.08;;;;;;;;;;5030849;28;20025;-58
2022/07/14 01:14:42;;;;;;;3.13;1.10;;;;;;;;;;5024749;28;20068;-58
2022/07/14 01:17:08;;;;;;;4.57;1.23;;;;;;;;;;5024291;28;20480;-57
2022/07/14 01:19:34;;;;;;;5.45;1.20;;;;;;;;;;5025743;28;20018;-57
2022/07/14 01:21:59;;;;;;;2.58;1.10;;;;;;;;;;5024078;28;20087;-58
2022/07/14 01:24:25;;;;;;;2.47;1.33;;;;;;;;;;5029659;28;20483;-58
2022/07/14 01:26:51;;;;;;;1.45;1.10;;;;;;;;;;5026187;28;20501;-58
2022/07/14 01:29:18;;;;;;;1.17;1.08;;;;;;;;;;5021927;28;20053;-57
2022/07/14 01:31:43;;;;;;;1.42;1.23;;;;;;;;;;5030980;28;20052;-57
2022/07/14 01:34:09;;;;;;;4.18;1.45;;;;;;;;;;5031082;28;20389;-57
2022/07/14 01:36:35;;;;;;;1.67;1.30;;;;;;;;;;5023652;28;20036;-57
2022/07/14 01:39:00;;;;;;;2.80;1.30;;;;;;;;;;5030126;28;20029;-57
2022/07/14 01:41:26;;;;;;;4.38;1.48;;;;;;;;;;5029333;28;20104;-57
2022/07/14 01:43:52;;;;;;;2.60;1.20;;;;;;;;;;5029829;28;20376;-57
2022/07/14 01:46:18;;;;;;;1.38;1.10;;;;;;;;;;5027788;28;20037;-58
2022/07/14 01:48:44;;;;;;;2.50;1.20;;;;;;;;;;5031000;28;20434;-58
2022/07/14 01:51:09;;;;;;;1.65;1.27;;;;;;;;;;5028278;28;20025;-58
2022/07/14 01:53:34;;;;;;;2.20;1.55;;;;;;;;;;5030301;28;20053;-58
2022/07/14 01:56:00;;;;;;;1.63;1.17;;;;;;;;;;5027523;28;20506;-56
2022/07/14 01:58:26;;;;;;;1.83;1.30;;;;;;;;;;5027754;28;20034;-57
2022/07/14 02:03:35;;;;;;;2.50;1.60;;;;;;;;;;5023048;28;20399;-57
2022/07/14 02:06:04;;;;;;;3.78;1.10;;;;;;;;;;5026277;28;20034;-57
2022/07/14 02:08:30;;;;;;;1.63;1.50;;;;;;;;;;5028170;28;20071;-57
2022/07/14 02:13:39;;;;;;;1.25;1.15;;;;;;;;;;5024649;28;20175;-56
2022/07/14 02:16:05;;;;;;;2.85;1.30;;;;;;;;;;5022337;28;20545;-56
2022/07/14 02:18:31;;;;;;;3.83;1.50;;;;;;;;;;5023671;28;20052;-56
2022/07/14 02:20:56;;;;;;;2.72;1.35;;;;;;;;;;5024275;28;20053;-56
2022/07/14 02:23:23;;;;;;;2.42;1.35;;;;;;;;;;5024027;28;20037;-56
2022/07/14 02:25:49;;;;;;;1.40;1.20;;;;;;;;;;5024257;28;20068;-56
2022/07/14 02:28:14;;;;;;;1.35;1.25;;;;;;;;;;5029989;28;20080;-57
2022/07/14 02:30:39;;;;;;;1.50;1.40;;;;;;;;;;5022774;28;20025;-56
2022/07/14 02:33:05;;;;;;;1.40;1.30;;;;;;;;;;5029208;28;20086;-56
2022/07/14 02:35:30;;;;;;;2.15;1.40;;;;;;;;;;5027978;28;20076;-56
2022/07/14 02:37:56;;;;;;;1.50;1.40;;;;;;;;;;5029858;28;20112;-56
2022/07/14 02:40:21;;;;;;;3.58;1.23;;;;;;;;;;5026707;28;20107;-56
2022/07/14 02:42:47;;;;;;;1.70;1.25;;;;;;;;;;5027761;28;20026;-56
2022/07/14 02:45:12;;;;;;;1.95;1.40;;;;;;;;;;5026224;28;20154;-56
2022/07/14 02:47:38;;;;;;;2.00;1.55;;;;;;;;;;5033219;28;20376;-56
2022/07/14 02:50:04;;;;;;;3.10;1.33;;;;;;;;;;5027899;28;20033;-56
2022/07/14 02:52:30;;;;;;;2.80;1.35;;;;;;;;;;5026171;28;20049;-56
2022/07/14 02:54:55;;;;;;;2.25;1.60;;;;;;;;;;5025125;28;20490;-54
2022/07/14 02:57:21;;;;;;;6.15;1.92;;;;;;;;;;5026138;28;20038;-56
2022/07/14 02:59:46;;;;;;;3.08;1.80;;;;;;;;;;5025636;28;20064;-56
2022/07/14 03:02:11;;;;;;;3.90;1.95;;;;;;;;;;5025631;28;20457;-56
2022/07/14 03:04:37;;;;;;;4.70;1.90;;;;;;;;;;5024059;28;20079;-56
2022/07/14 03:07:02;;;;;;;3.08;2.22;;;;;;;;;;5027721;28;20036;-56
2022/07/14 03:09:28;;;;;;;2.83;2.20;;;;;;;;;;5022589;28;20034;-56
2022/07/14 03:11:53;;;;;;;3.00;2.25;;;;;;;;;;5029485;28;20033;-56
2022/07/14 03:14:19;;;;;;;2.78;2.17;;;;;;;;;;5029336;28;20116;-56
2022/07/14 03:16:45;;;;;;;5.07;2.05;;;;;;;;;;5026952;28;20476;-56
2022/07/14 03:19:10;;;;;;;1.75;1.50;;;;;;;;;;5024168;28;20082;-56
2022/07/14 03:21:36;;;;;;;2.50;1.52;;;;;;;;;;5022686;28;20114;-56
2022/07/14 03:24:01;;;;;;;2.20;1.60;;;;;;;;;;5028737;28;20029;-56
2022/07/14 03:26:29;;;;;;;3.13;1.65;;;;;;;;;;5021375;28;20037;-56
2022/07/14 03:28:54;;;;;;;2.35;1.60;;;;;;;;;;5021023;28;20049;-56
2022/07/14 03:31:20;;;;;;;6.57;1.65;;;;;;;;;;5030029;28;20032;-56
2022/07/14 03:33:45;;;;;;;3.05;1.42;;;;;;;;;;5028760;28;20032;-56
2022/07/14 03:36:11;;;;;;;9.00;1.58;;;;;;;;;;5027439;28;20033;-56
2022/07/14 03:38:36;;;;;;;4.20;1.70;;;;;;;;;;5026689;28;20053;-56
2022/07/14 03:41:05;;;;;;;3.83;1.77;;;;;;;;;;5025977;28;20397;-56
2022/07/14 03:43:30;;;;;;;5.27;1.87;;;;;;;;;;5026471;28;20033;-56
2022/07/14 03:45:56;;;;;;;4.20;2.42;;;;;;;;;;5027054;28;20033;-56
2022/07/14 03:48:21;;;;;;;8.00;2.63;;;;;;;;;;5023893;28;20040;-56
2022/07/14 03:50:47;;;;;;;5.85;2.10;;;;;;;;;;5024885;28;20021;-56
2022/07/14 03:53:13;;;;;;;3.00;1.70;;;;;;;;;;5029322;28;20033;-56
2022/07/14 03:55:39;;;;;;;5.57;1.70;;;;;;;;;;5026916;28;20056;-56
2022/07/14 03:58:04;;;;;;;1.60;1.50;;;;;;;;;;5024216;28;20030;-56
2022/07/14 04:00:30;;;;;;;1.85;1.67;;;;;;;;;;5024736;28;20481;-56
2022/07/14 04:02:56;;;;;;;3.65;1.80;;;;;;;;;;5027031;28;20037;-56
2022/07/14 04:05:22;;;;;;;3.78;2.45;;;;;;;;;;5023533;28;20100;-56
2022/07/14 04:07:47;;;;;;;2.92;2.00;;;;;;;;;;5022525;28;20112;-55
2022/07/14 04:10:13;;;;;;;3.78;2.60;;;;;;;;;;5019916;28;20146;-55
2022/07/14 04:12:38;;;;;;;7.47;2.22;;;;;;;;;;5024624;28;20108;-58
2022/07/14 04:15:04;;;;;;;4.13;1.80;;;;;;;;;;5026076;28;20386;-58
2022/07/14 04:17:30;;;;;;;3.85;1.75;;;;;;;;;;5021960;28;20052;-55
2022/07/14 04:19:56;;;;;;;4.40;1.80;;;;;;;;;;5025622;28;20018;-55
2022/07/14 04:22:21;;;;;;;2.90;1.80;;;;;;;;;;5019931;28;20040;-58
2022/07/14 04:24:46;;;;;;;7.38;1.88;;;;;;;;;;5026496;28;20025;-58
2022/07/14 04:27:12;;;;;;;4.13;2.17;;;;;;;;;;5028367;28;20036;-57
2022/07/14 04:29:38;;;;;;;3.03;1.70;;;;;;;;;;5028307;28;20337;-58
2022/07/14 04:32:04;;;;;;;5.50;1.80;;;;;;;;;;5030030;28;20044;-58
2022/07/14 04:34:29;;;;;;;3.35;1.98;;;;;;;;;;5032258;28;20033;-58
2022/07/14 04:36:55;;;;;;;4.70;2.35;;;;;;;;;;5032776;28;20064;-58
2022/07/14 04:39:20;;;;;;;2.47;1.85;;;;;;;;;;5027906;28;20029;-57
2022/07/14 04:41:46;;;;;;;7.43;3.10;;;;;;;;;;5029013;28;20029;-57
2022/07/14 04:44:11;;;;;;;6.10;2.00;;;;;;;;;;5028968;28;20521;-58
2022/07/14 04:46:37;;;;;;;3.42;2.20;;;;;;;;;;5029118;28;20033;-58
2022/07/14 04:52:04;;;;;;;4.18;1.90;;;;;;;;;;5029832;28;20052;-58
2022/07/14 04:54:33;;;;;;;8.75;2.10;;;;;;;;;;5029456;28;20033;-58
2022/07/14 04:56:59;;;;;;;3.63;2.30;;;;;;;;;;5026481;28;20376;-58
2022/07/14 04:59:25;;;;;;;4.97;2.28;;;;;;;;;;5026349;28;20040;-58
2022/07/14 05:01:50;;;;;;;11.00;2.38;;;;;;;;;;5028341;28;20104;-57
2022/07/14 05:04:16;;;;;;;6.50;2.28;;;;;;;;;;5029338;28;20614;-55
2022/07/14 05:06:41;;;;;;;4.68;2.20;;;;;;;;;;5025848;28;20807;-55
2022/07/14 05:09:07;;;;;;;3.80;2.50;;;;;;;;;;5024236;28;20030;-56
2022/07/14 05:11:32;;;;;;;6.90;2.55;;;;;;;;;;5025847;28;20494;-56
2022/07/14 05:13:57;;;;;;;4.18;2.45;;;;;;;;;;5025577;28;20083;-57
2022/07/14 05:16:23;;;;;;;8.35;2.88;;;;;;;;;;5023922;28;20456;-57
2022/07/14 05:18:48;;;;;;;5.93;2.75;;;;;;;;;;5023855;28;20032;-57
2022/07/14 05:21:14;;;;;;;7.97;4.75;;;;;;;;;;5022198;28;20513;-56
2022/07/14 05:23:39;;;;;;;7.53;4.30;;;;;;;;;;5031001;28;20024;-58
2022/07/14 05:26:12;;;;;;;5.15;3.05;;;;;;;;;;5019272;28;20047;-58
2022/07/14 05:28:38;;;;;;;4.68;2.70;;;;;;;;;;5025899;28;20025;-58
2022/07/14 05:31:04;;;;;;;3.05;2.72;;;;;;;;;;5026481;28;20051;-55
2022/07/14 05:33:29;;;;;;;4.30;2.45;;;;;;;;;;5029509;28;20136;-55
2022/07/14 05:35:55;;;;;;;3.83;2.60;;;;;;;;;;5027322;28;20468;-55
2022/07/14 05:38:21;;;;;;;4.65;2.95;;;;;;;;;;5026655;28;20395;-57
2022/07/14 05:40:47;;;;;;;4.63;2.80;;;;;;;;;;5025283;28;20025;-58
2022/07/14 05:43:12;;;;;;;4.57;2.60;;;;;;;;;;5025566;28;20107;-58
2022/07/14 05:45:37;;;;;;;3.65;2.53;;;;;;;;;;5025934;28;20043;-57
2022/07/14 05:48:03;;;;;;;2.95;2.60;;;;;;;;;;5023722;28;20033;-58
2022/07/14 05:50:29;;;;;;;4.15;2.40;;;;;;;;;;5025683;28;20048;-55
2022/07/14 05:52:54;;;;;;;6.50;2.90;;;;;;;;;;5023544;28;20438;-57
2022/07/14 05:55:22;;;;;;;3.42;2.70;;;;;;;;;;5021467;28;20033;-58
2022/07/14 05:57:48;;;;;;;4.30;2.45;;;;;;;;;;5021281;28;20502;-57
2022/07/14 06:00:15;;;;;;;2.53;2.30;;;;;;;;;;5022132;28;20105;-58
2022/07/14 06:02:41;;;;;;;4.28;2.58;;;;;;;;;;5020794;28;20102;-57
2022/07/14 06:05:07;;;;;;;6.85;2.38;;;;;;;;;;5026703;28;20033;-58
2022/07/14 06:07:32;;;;;;;3.35;2.25;;;;;;;;;;5027355;28;20036;-57
2022/07/14 06:09:58;;;;;;;3.97;2.55;;;;;;;;;;5018457;28;20640;-58
2022/07/14 06:12:24;;;;;;;6.38;2.50;;;;;;;;;;5023111;28;20064;-57
2022/07/14 06:14:49;;;;;;;4.22;2.50;;;;;;;;;;5025133;28;20116;-58
2022/07/14 06:17:15;;;;;;;5.10;2.65;;;;;;;;;;5022472;28;20079;-58
2022/07/14 06:19:40;;;;;;;3.40;2.47;;;;;;;;;;5019169;28;20291;-58
2022/07/14 06:22:06;;;;;;;4.38;2.50;;;;;;;;;;5023606;28;20084;-57
2022/07/14 06:24:39;;;;;;;5.90;2.72;;;;;;;;;;5024112;28;20391;-58
2022/07/14 06:27:05;;;;;;;4.88;3.50;;;;;;;;;;5019801;28;20029;-58
2022/07/14 06:29:30;;;;;;;4.57;3.33;;;;;;;;;;5027355;28;20660;-58
2022/07/14 06:31:56;;;;;;;4.50;3.20;;;;;;;;;;5026812;28;20514;-58
2022/07/14 06:34:22;;;;;;;3.33;2.63;;;;;;;;;;5026692;28;20075;-58
2022/07/14 06:36:48;;;;;;;5.43;2.58;;;;;;;;;;5023183;28;20029;-58
2022/07/14 06:39:14;;;;;;;2.90;2.60;;;;;;;;;;5024654;28;20392;-57
2022/07/14 06:41:40;;;;;;;4.55;2.83;;;;;;;;;;5026534;28;20491;-58
2022/07/14 06:44:05;;;;;;;2.90;2.03;;;;;;;;;;5026835;28;20044;-57
2022/07/14 06:46:32;;;;;;;7.45;2.53;;;;;;;;;;5026265;28;20349;-58
2022/07/14 06:48:58;;;;;;;5.15;2.40;;;;;;;;;;5022498;28;20037;-58
2022/07/14 06:51:24;;;;;;;2.70;2.50;;;;;;;;;;5022152;28;20430;-57
2022/07/14 06:53:50;;;;;;;4.15;2.45;;;;;;;;;;5024318;28;20029;-57
2022/07/14 06:56:15;;;;;;;5.00;2.40;;;;;;;;;;5025619;28;20043;-57
2022/07/14 06:58:41;;;;;;;7.43;2.28;;;;;;;;;;5020881;28;20025;-57
2022/07/14 07:01:07;;;;;;;3.65;2.30;;;;;;;;;;5021980;28;20554;-57
2022/07/14 07:03:32;;;;;;;4.00;2.50;;;;;;;;;;5027147;28;20096;-57
2022/07/14 07:08:42;;;;;;;4.03;2.50;;;;;;;;;;5020566;28;20188;-59
2022/07/14 07:11:07;;;;;;;4.40;2.58;;;;;;;;;;5026254;28;20142;-57
2022/07/14 07:13:33;;;;;;;4.03;2.45;;;;;;;;;;5025788;28;20022;-57
2022/07/14 07:16:05;;;;;;;3.08;2.17;;;;;;;;;;5027342;28;20034;-57
2022/07/14 07:18:32;;;;;;;6.13;2.30;;;;;;;;;;5020656;28;20056;-59
2022/07/14 07:20:57;;;;;;;7.05;2.65;;;;;;;;;;5022574;28;20032;-58
2022/07/14 07:23:23;;;;;;;3.92;2.50;;;;;;;;;;5024501;28;20037;-59
2022/07/14 07:25:48;;;;;;;4.88;2.78;;;;;;;;;;5019920;28;20024;-57
2022/07/14 07:28:14;;;;;;;3.90;2.50;;;;;;;;;;5024383;28;20113;-56
2022/07/14 07:30:39;;;;;;;3.33;2.83;;;;;;;;;;5025433;28;20036;-56
2022/07/14 07:33:05;;;;;;;4.32;2.50;;;;;;;;;;5026183;28;20033;-58
2022/07/14 07:35:30;;;;;;;4.68;2.75;;;;;;;;;;5026590;28;20037;-57
2022/07/14 07:37:56;;;;;;;3.22;2.88;;;;;;;;;;5025160;28;20036;-58
2022/07/14 07:40:21;;;;;;;6.68;2.90;;;;;;;;;;5023296;28;20018;-58
2022/07/14 07:42:47;;;;;;;3.75;2.53;;;;;;;;;;5025371;28;20032;-58
2022/07/14 07:45:12;;;;;;;3.35;2.50;;;;;;;;;;5024576;28;20407;-58
2022/07/14 07:47:37;;;;;;;5.45;2.60;;;;;;;;;;5024855;28;20143;-59
2022/07/14 07:50:04;;;;;;;4.85;2.78;;;;;;;;;;5023139;28;20084;-57
2022/07/14 07:52:30;;;;;;;3.22;2.78;;;;;;;;;;5026834;28;20021;-57
2022/07/14 07:54:55;;;;;;;5.57;3.30;;;;;;;;;;5024062;28;20498;-57
2022/07/14 07:57:21;;;;;;;5.75;2.95;;;;;;;;;;5026845;28;20445;-56
2022/07/14 07:59:49;;;;;;;4.22;3.83;;;;;;;;;;5024998;28;20028;-57
2022/07/14 08:02:17;;;;;;;3.50;3.00;;;;;;;;;;5026059;28;20052;-57
2022/07/14 08:04:43;;;;;;;4.75;2.75;;;;;;;;;;5027877;28;20017;-57
2022/07/14 08:07:09;;;;;;;4.45;2.58;;;;;;;;;;5026148;28;20414;-57
2022/07/14 08:09:34;;;;;;;3.42;2.80;;;;;;;;;;5022379;28;20051;-57
2022/07/14 08:11:59;;;;;;;7.97;2.88;;;;;;;;;;5022099;28;20033;-57
2022/07/14 08:17:09;;;;;;;4.18;2.85;;;;;;;;;;5023840;28;20040;-57
2022/07/14 08:19:35;;;;;;;3.17;2.88;;;;;;;;;;5017553;28;20021;-57
2022/07/14 08:22:01;;;;;;;5.00;3.00;;;;;;;;;;5015906;28;20029;-57
2022/07/14 08:24:28;;;;;;;4.18;2.90;;;;;;;;;;5024700;28;20033;-57
2022/07/14 08:26:54;;;;;;;5.43;2.70;;;;;;;;;;5026637;28;20029;-57
2022/07/14 08:29:19;;;;;;;4.70;2.92;;;;;;;;;;5024617;28;20032;-57
2022/07/14 08:31:45;;;;;;;4.22;2.67;;;;;;;;;;5025246;28;20021;-57
2022/07/14 08:34:11;;;;;;;4.30;2.70;;;;;;;;;;5025177;28;20473;-57
2022/07/14 08:36:36;;;;;;;3.20;2.65;;;;;;;;;;5024414;28;20092;-57
2022/07/14 08:39:05;;;;;;;3.10;2.70;;;;;;;;;;5017636;28;20618;-57
2022/07/14 08:41:33;;;;;;;5.67;2.80;;;;;;;;;;5024421;28;20030;-57
2022/07/14 08:43:59;;;;;;;7.00;2.70;;;;;;;;;;5027402;28;20463;-57
2022/07/14 08:46:25;;;;;;;5.78;2.63;;;;;;;;;;5026707;28;20051;-57
2022/07/14 08:48:52;;;;;;;4.70;2.58;;;;;;;;;;5023238;28;20479;-57
2022/07/14 08:51:19;;;;;;;3.00;2.70;;;;;;;;;;5024762;28;20049;-57
2022/07/14 08:53:45;;;;;;;4.80;2.83;;;;;;;;;;5026073;28;20040;-57
2022/07/14 08:56:11;;;;;;;3.35;2.30;;;;;;;;;;5026306;28;20092;-57
2022/07/14 08:58:39;;;;;;;9.38;2.58;;;;;;;;;;5023453;28;20033;-57
2022/07/14 09:01:05;;;;;;;5.43;2.40;;;;;;;;;;5020394;28;20018;-57
2022/07/14 09:03:32;;;;;;;2.00;1.90;;;;;;;;;;5023819;28;20049;-57
2022/07/14 09:05:58;;;;;;;3.42;2.10;;;;;;;;;;5024763;28;20102;-57
2022/07/14 09:08:23;;;;;;;6.05;2.58;;;;;;;;;;5023590;28;20033;-57
2022/07/14 09:10:49;;;;;;;4.22;2.22;;;;;;;;;;5017259;28;20376;-57
2022/07/14 09:13:19;;;;;;;3.88;2.03;;;;;;;;;;5023768;28;20108;-57
2022/07/14 09:15:46;;;;;;;6.20;2.50;;;;;;;;;;5019650;28;20029;-58
2022/07/14 09:18:25;;;;;;;3.45;2.35;;;;;;;;;;5024866;28;20045;-58
2022/07/14 09:20:52;;;;;;;3.95;2.17;;;;;;;;;;5018784;28;20674;-57
2022/07/14 09:23:32;;;;;;;6.47;2.30;;;;;;;;;;5027516;28;20057;-58
2022/07/14 09:26:19;;;;;;;6.05;2.60;;;;;;;;;;5028511;28;20033;-58
2022/07/14 09:28:47;;;;;;;10.40;2.58;;;;;;;;;;5024855;28;20519;-57
2022/07/14 09:31:30;;;;;;;9.48;2.40;;;;;;;;;;5028612;28;20487;-58
2022/07/14 09:33:56;;;;;;;4.50;2.40;;;;;;;;;;5025592;28;20030;-58
2022/07/14 09:36:30;;;;;;;4.53;2.40;;;;;;;;;;5027766;28;20045;-58
2022/07/14 09:39:00;;;;;;;8.32;2.60;;;;;;;;;;5027951;28;20025;-58
2022/07/14 09:41:26;;;;;;;4.75;2.28;;;;;;;;;;5027868;28;20048;-58
2022/07/14 09:44:09;;;;;;;4.00;2.30;;;;;;;;;;5025153;28;20029;-58
2022/07/14 09:46:46;;;;;;;6.32;2.70;;;;;;;;;;5022123;28;20021;-58
2022/07/14 09:49:13;;;;;;;5.82;2.88;;;;;;;;;;5028962;28;20029;-58
2022/07/14 09:51:57;;;;;;;6.85;2.45;;;;;;;;;;5024076;28;20021;-58
2022/07/14 09:54:37;;;;;;;4.82;2.58;;;;;;;;;;5022553;28;20033;-58
2022/07/14 09:57:07;;;;;;;2.42;2.20;;;;;;;;;;5028890;28;20041;-58
2022/07/14 09:59:47;;;;;;;4.22;2.55;;;;;;;;;;5022399;28;20455;-58
2022/07/14 10:02:40;;;;;;;3.13;2.38;;;;;;;;;;5028012;28;20030;-58
2022/07/14 10:05:08;;;;;;;2.63;2.40;;;;;;;;;;5026454;28;20042;-58
2022/07/14 10:07:38;;;;;;;4.93;2.27;;;;;;;;;;5020720;28;20030;-58
2022/07/14 10:10:07;;;;;;;3.75;2.40;;;;;;;;;;5023951;28;20030;-58
2022/07/14 10:12:32;;;;;;;;;;;;;;;;;;5018303;28;20037;-58
2022/07/14 10:15:02;;;;;;;7.35;2.50;;;;;;;;;;5015508;28;21399;-58
2022/07/14 10:17:29;;;;;;;2.72;2.47;;;;;;;;;;5016573;28;20423;-58
2022/07/14 10:19:55;;;;;;;3.78;2.20;;;;;;;;;;5016842;28;20124;-58
2022/07/14 10:22:21;;;;;;;3.90;2.47;;;;;;;;;;5021962;28;20036;-58
2022/07/14 10:24:50;;;;;;;3.05;2.10;;;;;;;;;;5027546;28;20037;-58
2022/07/14 10:27:18;;;;;;;7.65;2.40;;;;;;;;;;5025987;28;20065;-58
2022/07/14 10:29:50;;;;;;;6.20;2.47;;;;;;;;;;5027107;28;20071;-58
2022/07/14 10:32:53;;;;;;;2.88;2.30;;;;;;;;;;5028780;28;20406;-58
2022/07/14 10:35:30;;;;;;;3.33;2.38;;;;;;;;;;5024183;28;20108;-59
2022/07/14 10:38:29;;;;;;;2.40;2.20;;;;;;;;;;5017133;28;20030;-59
2022/07/14 10:41:17;;;;;;;9.05;2.45;;;;;;;;;;5014932;28;20036;-59
2022/07/14 10:43:54;;;;;;;;;;;;;;;;;;5018206;28;20483;-58
2022/07/14 10:46:34;;;;;;;3.75;2.30;;;;;;;;;;5016567;28;19912;-58
2022/07/14 10:49:02;;;;;;;3.25;2.40;;;;;;;;;;5019219;28;20096;-58
2022/07/14 10:51:28;;;;;;;2.60;2.00;;;;;;;;;;5019769;28;20026;-58
2022/07/14 10:54:34;;;;;;;5.03;2.33;;;;;;;;;;5028815;28;20106;-58
2022/07/14 10:57:12;;;;;;;4.22;2.20;;;;;;;;;;5024677;28;20125;-57
2022/07/14 10:59:38;;;;;;;6.93;2.42;;;;;;;;;;5025987;28;20112;-57
2022/07/14 11:02:13;;;;;;;3.72;2.47;;;;;;;;;;5028472;28;20107;-57
2022/07/14 11:05:03;;;;;;;3.28;2.00;;;;;;;;;;5025005;28;20036;-57
2022/07/14 11:07:40;;;;;;;5.95;3.42;;;;;;;;;;5020783;28;20033;-57
2022/07/14 11:10:14;;;;;;;7.15;3.88;;;;;;;;;;5020408;28;20044;-57
2022/07/14 11:13:04;;;;;;;6.53;4.20;;;;;;;;;;5022150;28;20029;-57
2022/07/14 11:15:45;;;;;;;6.85;2.90;;;;;;;;;;5021624;28;20025;-57
2022/07/14 11:18:26;;;;;;;11.50;2.72;;;;;;;;;;5020705;28;20040;-57
2022/07/14 11:21:12;;;;;;;4.35;2.42;;;;;;;;;;5023425;28;20021;-60
2022/07/14 11:23:53;;;;;;;2.97;2.00;;;;;;;;;;5027255;28;20107;-58
2022/07/14 11:26:36;;;;;;;3.05;1.92;;;;;;;;;;5025167;28;20025;-60
2022/07/14 11:29:04;;;;;;;2.90;1.98;;;;;;;;;;5027065;28;20029;-58
2022/07/14 11:31:47;;;;;;;5.18;2.28;;;;;;;;;;5025543;28;20105;-59
2022/07/14 11:37:09;;;;;;;3.70;1.90;;;;;;;;;;5023793;28;20060;-58
2022/07/14 11:39:39;;;;;;;1.85;1.60;;;;;;;;;;5025694;28;20017;-61
2022/07/14 11:42:18;;;;;;;2.28;1.70;;;;;;;;;;5021657;28;20026;-60
2022/07/14 11:44:47;;;;;;;2.70;1.90;;;;;;;;;;5024934;28;20139;-60
2022/07/14 11:47:34;;;;;;;4.03;1.63;;;;;;;;;;5025201;28;20025;-60
2022/07/14 11:50:01;;;;;;;1.90;1.45;;;;;;;;;;5023418;28;20038;-59
2022/07/14 11:52:32;;;;;;;4.22;1.70;;;;;;;;;;5022460;28;20036;-60
2022/07/14 11:55:00;;;;;;;1.77;1.48;;;;;;;;;;5022152;28;20029;-58
2022/07/14 11:57:27;;;;;;;2.13;1.67;;;;;;;;;;5023219;28;20037;-58
2022/07/14 11:59:53;;;;;;;3.75;1.70;;;;;;;;;;5020565;28;20053;-58
2022/07/14 12:02:20;;;;;;;3.83;1.75;;;;;;;;;;5023122;28;20078;-58
2022/07/14 12:04:54;;;;;;;3.15;1.52;;;;;;;;;;5022720;28;20025;-57
2022/07/14 12:07:25;;;;;;;1.88;1.70;;;;;;;;;;5021533;28;20427;-58
2022/07/14 12:09:52;;;;;;;3.47;1.85;;;;;;;;;;5019852;28;20037;-58
2022/07/14 12:12:19;;;;;;;3.08;1.52;;;;;;;;;;5023743;28;20037;-58
2022/07/14 12:14:46;;;;;;;6.73;2.07;;;;;;;;;;5025528;28;20029;-56
2022/07/14 12:17:12;;;;;;;2.30;1.80;;;;;;;;;;5018666;28;20280;-59
2022/07/14 12:19:38;;;;;;;3.03;2.00;;;;;;;;;;5020389;28;20022;-57
2022/07/14 12:22:05;;;;;;;4.35;1.80;;;;;;;;;;5020572;28;20028;-58
2022/07/14 12:24:32;;;;;;;1.92;1.70;;;;;;;;;;5026582;28;20095;-58
2022/07/14 12:27:05;;;;;;;4.18;1.95;;;;;;;;;;5024896;28;20400;-58
2022/07/14 12:29:32;;;;;;;4.47;2.20;;;;;;;;;;5026020;28;20109;-58
2022/07/14 12:31:59;;;;;;;2.97;2.13;;;;;;;;;;5024808;28;20021;-57
2022/07/14 12:34:26;;;;;;;2.85;1.90;;;;;;;;;;5023116;28;20059;-58
2022/07/14 12:36:55;;;;;;;2.13;1.92;;;;;;;;;;5022511;28;20520;-57
2022/07/14 12:39:20;;;;;;;5.47;2.35;;;;;;;;;;5023665;28;20525;-57
2022/07/14 12:41:46;;;;;;;4.20;2.08;;;;;;;;;;5021400;28;20025;-57
2022/07/14 12:44:12;;;;;;;1.95;1.80;;;;;;;;;;5025854;28;20119;-57
2022/07/14 12:46:38;;;;;;;1.80;1.70;;;;;;;;;;5021470;28;20021;-58
2022/07/14 12:49:05;;;;;;;2.13;1.83;;;;;;;;;;5022193;28;20467;-57
2022/07/14 12:51:35;;;;;;;3.30;1.90;;;;;;;;;;5020613;28;20040;-57
2022/07/14 12:54:08;;;;;;;5.68;1.77;;;;;;;;;;5023707;28;20655;-57
2022/07/14 12:56:33;;;;;;;4.03;1.90;;;;;;;;;;5028058;28;20430;-57
2022/07/14 12:59:02;;;;;;;2.10;1.90;;;;;;;;;;5025246;28;20253;-57
2022/07/14 13:01:28;;;;;;;3.53;1.95;;;;;;;;;;5019068;28;20021;-57
2022/07/14 13:04:01;;;;;;;6.80;1.88;;;;;;;;;;5023074;28;20036;-57
2022/07/14 13:06:28;;;;;;;3.55;2.03;;;;;;;;;;5018557;28;20040;-57
2022/07/14 13:08:53;;;;;;;4.93;1.90;;;;;;;;;;5026681;28;20036;-58
2022/07/14 13:11:19;;;;;;;3.50;1.92;;;;;;;;;;5022741;28;20392;-58
2022/07/14 13:13:49;;;;;;;2.08;1.90;;;;;;;;;;5029518;28;20425;-58
2022/07/14 13:16:28;;;;;;;4.95;1.90;;;;;;;;;;5022368;28;20082;-58
2022/07/14 13:19:06;;;;;;;3.58;1.80;;;;;;;;;;5018948;28;20022;-57
2022/07/14 13:21:50;;;;;;;7.63;2.20;;;;;;;;;;5027750;28;20036;-58
2022/07/14 13:24:19;;;;;;;2.92;2.10;;;;;;;;;;5026255;28;20496;-57
2022/07/14 13:26:56;;;;;;;5.25;1.90;;;;;;;;;;5028039;28;20022;-57
2022/07/14 13:29:22;;;;;;;5.07;3.00;;;;;;;;;;5027885;28;20025;-58
2022/07/14 13:31:47;;;;;;;2.60;1.90;;;;;;;;;;5023909;28;20076;-58
2022/07/14 13:34:16;;;;;;;3.25;1.75;;;;;;;;;;5025960;28;20121;-59
2022/07/14 13:36:41;;;;;;;5.10;1.98;;;;;;;;;;5027479;28;20367;-58
2022/07/14 13:39:07;;;;;;;4.57;1.80;;;;;;;;;;5029922;28;20108;-58
2022/07/14 13:41:32;;;;;;;2.83;2.03;;;;;;;;;;5028186;28;20033;-58
2022/07/14 13:44:00;;;;;;;5.65;1.90;;;;;;;;;;5023811;28;20068;-58
2022/07/14 13:46:26;;;;;;;3.33;1.95;;;;;;;;;;5025721;28;20026;-58
2022/07/14 13:48:52;;;;;;;5.22;2.03;;;;;;;;;;5024475;28;20072;-58
2022/07/14 13:54:01;;;;;;;4.50;1.80;;;;;;;;;;5022861;28;20525;-57
2022/07/14 13:56:27;;;;;;;5.32;1.77;;;;;;;;;;5027712;28;20029;-58
2022/07/14 13:58:53;;;;;;;4.28;1.95;;;;;;;;;;5029680;28;20021;-58
2022/07/14 14:01:19;;;;;;;3.42;1.95;;;;;;;;;;5024500;28;20032;-58
2022/07/14 14:03:48;;;;;;;2.85;1.85;;;;;;;;;;5015358;28;20064;-57
2022/07/14 14:06:14;;;;;;;3.97;1.70;;;;;;;;;;5025906;28;20044;-59
2022/07/14 14:08:41;;;;;;;2.88;1.70;;;;;;;;;;5027981;28;20553;-57
2022/07/14 14:11:07;;;;;;;2.80;1.75;;;;;;;;;;5020070;28;20432;-57
2022/07/14 14:13:34;;;;;;;1.90;1.67;;;;;;;;;;5022064;28;20041;-58
2022/07/14 14:16:01;;;;;;;3.13;1.80;;;;;;;;;;5027551;28;20021;-58
2022/07/14 14:18:30;;;;;;;5.13;1.50;;;;;;;;;;5027480;28;20115;-58
2022/07/14 14:20:58;;;;;;;1.70;1.55;;;;;;;;;;5026390;28;20403;-57
2022/07/14 14:23:23;;;;;;;7.60;1.70;;;;;;;;;;5026931;28;20487;-58
2022/07/14 14:25:49;;;;;;;4.35;1.70;;;;;;;;;;5027982;28;20065;-57
2022/07/14 14:28:14;;;;;;;2.80;1.60;;;;;;;;;;5025512;28;20541;-57
2022/07/14 14:30:40;;;;;;;3.00;1.67;;;;;;;;;;5023207;28;20026;-57
2022/07/14 14:33:06;;;;;;;3.90;1.83;;;;;;;;;;5025414;28;20124;-57
2022/07/14 14:35:33;;;;;;;3.08;2.03;;;;;;;;;;5027684;28;20030;-57
2022/07/14 14:38:00;;;;;;;6.47;1.80;;;;;;;;;;5028116;28;20499;-59
2022/07/14 14:40:25;;;;;;;5.57;2.00;;;;;;;;;;5023271;28;20103;-58
2022/07/14 14:42:51;;;;;;;2.50;2.00;;;;;;;;;;5021473;28;20519;-58
2022/07/14 14:45:19;;;;;;;5.10;1.80;;;;;;;;;;5025806;28;20475;-59
2022/07/14 14:47:45;;;;;;;5.22;1.77;;;;;;;;;;5024249;28;20120;-59
2022/07/14 14:50:11;;;;;;;4.70;2.08;;;;;;;;;;5025165;28;20534;-58
2022/07/14 14:52:38;;;;;;;4.38;1.75;;;;;;;;;;5024950;28;20033;-59
2022/07/14 14:55:05;;;;;;;3.80;1.88;;;;;;;;;;5022869;28;20050;-57
2022/07/14 14:57:32;;;;;;;5.20;2.17;;;;;;;;;;5023572;28;20104;-58
2022/07/14 14:59:57;;;;;;;3.90;2.00;;;;;;;;;;5026583;28;20166;-58
2022/07/14 15:02:27;;;;;;;3.85;2.13;;;;;;;;;;5021950;28;20124;-59
2022/07/14 15:04:54;;;;;;;4.97;2.20;;;;;;;;;;5020111;28;20153;-58
2022/07/14 15:07:20;;;;;;;7.82;2.60;;;;;;;;;;5019575;28;20029;-58